PWSweather.com
Personal Weather Stations
Station Observations
CANDIOTINO
Barrio Candioti Norte, Santa FeAR 3000

Barrio Candioti NorteSanta FeAR 3000

Lat: -31.632778, Lon: -60.695556

Elevation: 69

Station Type: WH-1081

http://www.eltiempoensantafe.com.ar

High Low Average
Temperature 73.6°F23.1°C 48.6°F9.2°C 60.2°F15.7°C
Dew Point 50.3°F10.2°C 42.3°F5.7°C 46.4°F8.0°C
Winds 8.3 mph 13.4 kmh Calm Calm 3.0 mph NE4.8 kmh NE
Wind Gusts 15.2 mph24.5 kmh 1.6 mph2.6 kmh 7.0 mph11.3 kmh
Humidity 82% 39% 62%
Pressure 30.17 in1021.7 mb 30.04 in1017.3 mb -
Precipitation 0.00 in0.0 mm - -
Hour Temp Dew Point Humidity Winds Wind Gusts Pressure Precip Precip Rate Daily Precip Total
12:00 AM 55.4°F13.0°C 43.4°F6.3°C 64% Calm Calm 4.5 mph7.2 kmh 30.16 in1021.3 mb 0.00 in0.0 mm 0.00 in0.0 mm 0.00 in0.0 mm
12:15 AM 54.9°F12.7°C 43.3°F6.3°C 65% 0.7 mph E1.1 kmh E 2.2 mph3.5 kmh 30.16 in1021.3 mb 0.00 in0.0 mm 0.00 in0.0 mm 0.00 in0.0 mm
12:30 AM 54.7°F12.6°C 43.6°F6.4°C 66% 0.7 mph NE1.1 kmh NE 6.0 mph9.7 kmh 30.16 in1021.3 mb 0.00 in0.0 mm 0.00 in0.0 mm 0.00 in0.0 mm
12:45 AM 55.0°F12.8°C 43.5°F6.4°C 65% 1.6 mph E2.6 kmh E 5.4 mph8.7 kmh 30.16 in1021.3 mb 0.00 in0.0 mm 0.00 in0.0 mm 0.00 in0.0 mm
01:00 AM 55.0°F12.8°C 43.1°F6.2°C 64% 1.6 mph NE2.6 kmh NE 3.8 mph6.1 kmh 30.16 in1021.3 mb 0.00 in0.0 mm 0.00 in0.0 mm 0.00 in0.0 mm
01:15 AM 54.5°F12.5°C 43.4°F6.3°C 66% 2.2 mph NE3.5 kmh NE 3.8 mph6.1 kmh 30.16 in1021.3 mb 0.00 in0.0 mm 0.00 in0.0 mm 0.00 in0.0 mm
01:30 AM 54.1°F12.3°C 43.0°F6.1°C 66% 0.7 mph NNE1.1 kmh NNE 3.8 mph6.1 kmh 30.16 in1021.3 mb 0.00 in0.0 mm 0.00 in0.0 mm 0.00 in0.0 mm
01:45 AM 53.6°F12.0°C 42.5°F5.8°C 66% 0.7 mph NE1.1 kmh NE 3.8 mph6.1 kmh 30.16 in1021.3 mb 0.00 in0.0 mm 0.00 in0.0 mm 0.00 in0.0 mm
02:00 AM 53.2°F11.8°C 42.6°F5.9°C 67% 0.7 mph NE1.1 kmh NE 5.4 mph8.7 kmh 30.15 in1021.0 mb 0.00 in0.0 mm 0.00 in0.0 mm 0.00 in0.0 mm
02:15 AM 52.9°F11.6°C 42.6°F5.9°C 68% 1.6 mph NE2.6 kmh NE 4.5 mph7.2 kmh 30.15 in1021.0 mb 0.00 in0.0 mm 0.00 in0.0 mm 0.00 in0.0 mm
02:30 AM 52.5°F11.4°C 42.7°F5.9°C 69% 2.2 mph NE3.5 kmh NE 4.5 mph7.2 kmh 30.15 in1021.0 mb 0.00 in0.0 mm 0.00 in0.0 mm 0.00 in0.0 mm
02:45 AM 52.2°F11.2°C 42.3°F5.7°C 69% 1.6 mph NE2.6 kmh NE 4.5 mph7.2 kmh 30.15 in1021.0 mb 0.00 in0.0 mm 0.00 in0.0 mm 0.00 in0.0 mm
03:00 AM 51.8°F11.0°C 42.7°F5.9°C 71% 1.6 mph NE2.6 kmh NE 3.1 mph5.0 kmh 30.15 in1021.0 mb 0.00 in0.0 mm 0.00 in0.0 mm 0.00 in0.0 mm
03:15 AM 51.6°F10.9°C 43.3°F6.3°C 73% 0.7 mph E1.1 kmh E 3.1 mph5.0 kmh 30.14 in1020.7 mb 0.00 in0.0 mm 0.00 in0.0 mm 0.00 in0.0 mm
03:30 AM 51.6°F10.9°C 43.3°F6.3°C 73% 1.6 mph NE2.6 kmh NE 3.1 mph5.0 kmh 30.14 in1020.7 mb 0.00 in0.0 mm 0.00 in0.0 mm 0.00 in0.0 mm
03:45 AM 51.4°F10.8°C 43.1°F6.2°C 73% 0.7 mph E1.1 kmh E 3.1 mph5.0 kmh 30.14 in1020.7 mb 0.00 in0.0 mm 0.00 in0.0 mm 0.00 in0.0 mm
04:00 AM 50.9°F10.5°C 42.9°F6.1°C 74% Calm Calm 2.2 mph3.5 kmh 30.15 in1021.0 mb 0.00 in0.0 mm 0.00 in0.0 mm 0.00 in0.0 mm
04:15 AM 50.7°F10.4°C 42.7°F5.9°C 74% 1.6 mph E2.6 kmh E 4.5 mph7.2 kmh 30.14 in1020.7 mb 0.00 in0.0 mm 0.00 in0.0 mm 0.00 in0.0 mm
04:30 AM 50.5°F10.3°C 42.9°F6.1°C 75% Calm Calm 3.1 mph5.0 kmh 30.14 in1020.7 mb 0.00 in0.0 mm 0.00 in0.0 mm 0.00 in0.0 mm
04:45 AM 50.4°F10.2°C 42.7°F5.9°C 75% 1.6 mph E2.6 kmh E 3.8 mph6.1 kmh 30.14 in1020.7 mb 0.00 in0.0 mm 0.00 in0.0 mm 0.00 in0.0 mm
05:00 AM 50.5°F10.3°C 42.9°F6.1°C 75% 1.6 mph E2.6 kmh E 3.8 mph6.1 kmh 30.14 in1020.7 mb 0.00 in0.0 mm 0.00 in0.0 mm 0.00 in0.0 mm
05:15 AM 50.2°F10.1°C 42.6°F5.9°C 75% 1.6 mph ENE2.6 kmh ENE 3.1 mph5.0 kmh 30.13 in1020.3 mb 0.00 in0.0 mm 0.00 in0.0 mm 0.00 in0.0 mm
05:30 AM 50.4°F10.2°C 43.1°F6.2°C 76% 2.2 mph ENE3.5 kmh ENE 3.8 mph6.1 kmh 30.13 in1020.3 mb 0.00 in0.0 mm 0.00 in0.0 mm 0.00 in0.0 mm
05:45 AM 50.2°F10.1°C 42.9°F6.1°C 76% 1.6 mph ENE2.6 kmh ENE 5.4 mph8.7 kmh 30.14 in1020.7 mb 0.00 in0.0 mm 0.00 in0.0 mm 0.00 in0.0 mm
06:00 AM 50.0°F10.0°C 42.7°F5.9°C 76% 1.6 mph NE2.6 kmh NE 4.5 mph7.2 kmh 30.13 in1020.3 mb 0.00 in0.0 mm 0.00 in0.0 mm 0.00 in0.0 mm
06:15 AM 49.6°F9.8°C 43.1°F6.2°C 78% 1.6 mph NE2.6 kmh NE 5.4 mph8.7 kmh 30.13 in1020.3 mb 0.00 in0.0 mm 0.00 in0.0 mm 0.00 in0.0 mm
06:30 AM 49.3°F9.6°C 42.7°F5.9°C 78% 1.6 mph NE2.6 kmh NE 6.9 mph11.1 kmh 30.14 in1020.7 mb 0.00 in0.0 mm 0.00 in0.0 mm 0.00 in0.0 mm
06:45 AM 48.9°F9.4°C 42.7°F5.9°C 79% 1.6 mph ENE2.6 kmh ENE 4.5 mph7.2 kmh 30.14 in1020.7 mb 0.00 in0.0 mm 0.00 in0.0 mm 0.00 in0.0 mm
07:00 AM 48.7°F9.3°C 42.5°F5.8°C 79% 1.6 mph E2.6 kmh E 5.4 mph8.7 kmh 30.14 in1020.7 mb 0.00 in0.0 mm 0.00 in0.0 mm 0.00 in0.0 mm
07:15 AM 48.7°F9.3°C 42.9°F6.1°C 80% 1.6 mph NE2.6 kmh NE 5.4 mph8.7 kmh 30.14 in1020.7 mb 0.00 in0.0 mm 0.00 in0.0 mm 0.00 in0.0 mm
07:30 AM 48.6°F9.2°C 42.7°F5.9°C 80% 0.7 mph E1.1 kmh E 3.8 mph6.1 kmh 30.15 in1021.0 mb 0.00 in0.0 mm 0.00 in0.0 mm 0.00 in0.0 mm
07:45 AM 48.6°F9.2°C 43.0°F6.1°C 81% 1.6 mph ENE2.6 kmh ENE 3.8 mph6.1 kmh 30.15 in1021.0 mb 0.00 in0.0 mm 0.00 in0.0 mm 0.00 in0.0 mm
08:00 AM 49.6°F9.8°C 44.4°F6.9°C 82% 3.1 mph ENE5.0 kmh ENE 6.0 mph9.7 kmh 30.15 in1021.0 mb 0.00 in0.0 mm 0.00 in0.0 mm 0.00 in0.0 mm
08:15 AM 51.4°F10.8°C 45.2°F7.3°C 79% 3.1 mph E5.0 kmh E 6.9 mph11.1 kmh 30.15 in1021.0 mb 0.00 in0.0 mm 0.00 in0.0 mm 0.00 in0.0 mm
08:30 AM 52.3°F11.3°C 44.7°F7.1°C 75% 3.1 mph NE5.0 kmh NE 6.9 mph11.1 kmh 30.15 in1021.0 mb 0.00 in0.0 mm 0.00 in0.0 mm 0.00 in0.0 mm
08:45 AM 54.0°F12.2°C 45.1°F7.3°C 72% 1.6 mph NE2.6 kmh NE 6.9 mph11.1 kmh 30.16 in1021.3 mb 0.00 in0.0 mm 0.00 in0.0 mm 0.00 in0.0 mm
09:00 AM 55.4°F13.0°C 45.8°F7.7°C 70% 3.8 mph ENE6.1 kmh ENE 7.6 mph12.2 kmh 30.15 in1021.0 mb 0.00 in0.0 mm 0.00 in0.0 mm 0.00 in0.0 mm
09:15 AM 54.7°F12.6°C 45.5°F7.5°C 71% 2.2 mph ENE3.5 kmh ENE 7.6 mph12.2 kmh 30.15 in1021.0 mb 0.00 in0.0 mm 0.00 in0.0 mm 0.00 in0.0 mm
09:30 AM 56.7°F13.7°C 46.6°F8.1°C 69% 6.0 mph NE9.7 kmh NE 9.8 mph15.8 kmh 30.16 in1021.3 mb 0.00 in0.0 mm 0.00 in0.0 mm 0.00 in0.0 mm
09:45 AM 57.6°F14.2°C 46.7°F8.2°C 67% 6.0 mph NNE9.7 kmh NNE 13.6 mph21.9 kmh 30.16 in1021.3 mb 0.00 in0.0 mm 0.00 in0.0 mm 0.00 in0.0 mm
10:00 AM 59.0°F15.0°C 47.3°F8.5°C 65% 3.1 mph NE5.0 kmh NE 8.3 mph13.4 kmh 30.17 in1021.7 mb 0.00 in0.0 mm 0.00 in0.0 mm 0.00 in0.0 mm
10:15 AM 60.3°F15.7°C 47.6°F8.7°C 63% 8.3 mph N13.4 kmh N 13.0 mph20.9 kmh 30.17 in1021.7 mb 0.00 in0.0 mm 0.00 in0.0 mm 0.00 in0.0 mm
10:30 AM 61.0°F16.1°C 47.9°F8.8°C 62% 2.2 mph N3.5 kmh N 12.1 mph19.5 kmh 30.17 in1021.7 mb 0.00 in0.0 mm 0.00 in0.0 mm 0.00 in0.0 mm
10:45 AM 61.5°F16.4°C 48.0°F8.9°C 61% 3.8 mph NE6.1 kmh NE 11.4 mph18.3 kmh 30.17 in1021.7 mb 0.00 in0.0 mm 0.00 in0.0 mm 0.00 in0.0 mm
11:00 AM 62.4°F16.9°C 48.4°F9.1°C 60% 3.8 mph NE6.1 kmh NE 9.2 mph14.8 kmh 30.17 in1021.7 mb 0.00 in0.0 mm 0.00 in0.0 mm 0.00 in0.0 mm
11:15 AM 63.3°F17.4°C 47.8°F8.8°C 57% 5.4 mph NNE8.7 kmh NNE 9.2 mph14.8 kmh 30.17 in1021.7 mb 0.00 in0.0 mm 0.00 in0.0 mm 0.00 in0.0 mm
11:30 AM 64.4°F18.0°C 48.9°F9.4°C 57% 2.2 mph NNE3.5 kmh NNE 8.3 mph13.4 kmh 30.17 in1021.7 mb 0.00 in0.0 mm 0.00 in0.0 mm 0.00 in0.0 mm
11:45 AM 65.1°F18.4°C 49.1°F9.5°C 56% 3.1 mph NE5.0 kmh NE 9.8 mph15.8 kmh 30.16 in1021.3 mb 0.00 in0.0 mm 0.00 in0.0 mm 0.00 in0.0 mm
12:00 PM 66.2°F19.0°C 49.6°F9.8°C 55% 4.5 mph NE7.2 kmh NE 8.3 mph13.4 kmh 30.16 in1021.3 mb 0.00 in0.0 mm 0.00 in0.0 mm 0.00 in0.0 mm
12:15 PM 65.7°F18.7°C 49.6°F9.8°C 56% 4.5 mph NNE7.2 kmh NNE 10.7 mph17.2 kmh 30.15 in1021.0 mb 0.00 in0.0 mm 0.00 in0.0 mm 0.00 in0.0 mm
12:30 PM 66.2°F19.0°C 49.1°F9.5°C 54% 3.8 mph NE6.1 kmh NE 10.7 mph17.2 kmh 30.15 in1021.0 mb 0.00 in0.0 mm 0.00 in0.0 mm 0.00 in0.0 mm
12:45 PM 68.5°F20.3°C 49.2°F9.6°C 50% 6.0 mph NNE9.7 kmh NNE 9.2 mph14.8 kmh 30.14 in1020.7 mb 0.00 in0.0 mm 0.00 in0.0 mm 0.00 in0.0 mm
01:00 PM 69.4°F20.8°C 48.9°F9.4°C 48% 3.8 mph NE6.1 kmh NE 9.8 mph15.8 kmh 30.14 in1020.7 mb 0.00 in0.0 mm 0.00 in0.0 mm 0.00 in0.0 mm
01:15 PM 69.4°F20.8°C 48.9°F9.4°C 48% 3.1 mph NE5.0 kmh NE 10.7 mph17.2 kmh 30.12 in1020.0 mb 0.00 in0.0 mm 0.00 in0.0 mm 0.00 in0.0 mm
01:30 PM 69.4°F20.8°C 48.4°F9.1°C 47% 6.9 mph NNE11.1 kmh NNE 15.2 mph24.5 kmh 30.12 in1020.0 mb 0.00 in0.0 mm 0.00 in0.0 mm 0.00 in0.0 mm
01:45 PM 69.1°F20.6°C 48.0°F8.9°C 47% 5.4 mph NE8.7 kmh NE 12.1 mph19.5 kmh 30.11 in1019.6 mb 0.00 in0.0 mm 0.00 in0.0 mm 0.00 in0.0 mm
02:00 PM 70.7°F21.5°C 48.3°F9.1°C 45% 6.0 mph NE9.7 kmh NE 10.7 mph17.2 kmh 30.10 in1019.3 mb 0.00 in0.0 mm 0.00 in0.0 mm 0.00 in0.0 mm
02:15 PM 70.5°F21.4°C 47.6°F8.7°C 44% 4.5 mph NE7.2 kmh NE 10.7 mph17.2 kmh 30.09 in1019.0 mb 0.00 in0.0 mm 0.00 in0.0 mm 0.00 in0.0 mm
02:30 PM 71.4°F21.9°C 48.4°F9.1°C 44% 6.0 mph NNE9.7 kmh NNE 10.7 mph17.2 kmh 30.09 in1019.0 mb 0.00 in0.0 mm 0.00 in0.0 mm 0.00 in0.0 mm
02:45 PM 70.9°F21.6°C 47.3°F8.5°C 43% 6.0 mph ENE9.7 kmh ENE 11.4 mph18.3 kmh 30.08 in1018.6 mb 0.00 in0.0 mm 0.00 in0.0 mm 0.00 in0.0 mm
03:00 PM 71.4°F21.9°C 47.8°F8.8°C 43% 5.4 mph NE8.7 kmh NE 10.7 mph17.2 kmh 30.08 in1018.6 mb 0.00 in0.0 mm 0.00 in0.0 mm 0.00 in0.0 mm
03:15 PM 71.8°F22.1°C 47.5°F8.6°C 42% 5.4 mph NE8.7 kmh NE 9.8 mph15.8 kmh 30.07 in1018.3 mb 0.00 in0.0 mm 0.00 in0.0 mm 0.00 in0.0 mm
03:30 PM 73.0°F22.8°C 48.6°F9.2°C 42% 5.4 mph NE8.7 kmh NE 13.0 mph20.9 kmh 30.07 in1018.3 mb 0.00 in0.0 mm 0.00 in0.0 mm 0.00 in0.0 mm
03:45 PM 73.0°F22.8°C 48.6°F9.2°C 42% 5.4 mph NE8.7 kmh NE 8.3 mph13.4 kmh 30.06 in1017.9 mb 0.00 in0.0 mm 0.00 in0.0 mm 0.00 in0.0 mm
04:00 PM 73.0°F22.8°C 48.6°F9.2°C 42% 3.8 mph NE6.1 kmh NE 11.4 mph18.3 kmh 30.06 in1017.9 mb 0.00 in0.0 mm 0.00 in0.0 mm 0.00 in0.0 mm
04:15 PM 73.4°F23.0°C 48.3°F9.1°C 41% 4.5 mph NNE7.2 kmh NNE 10.7 mph17.2 kmh 30.06 in1017.9 mb 0.00 in0.0 mm 0.00 in0.0 mm 0.00 in0.0 mm
04:30 PM 73.4°F23.0°C 48.3°F9.1°C 41% 3.8 mph ENE6.1 kmh ENE 10.7 mph17.2 kmh 30.05 in1017.6 mb 0.00 in0.0 mm 0.00 in0.0 mm 0.00 in0.0 mm
04:45 PM 73.6°F23.1°C 48.5°F9.2°C 41% 6.0 mph NNE9.7 kmh NNE 9.8 mph15.8 kmh 30.05 in1017.6 mb 0.00 in0.0 mm 0.00 in0.0 mm 0.00 in0.0 mm
05:00 PM 73.4°F23.0°C 48.9°F9.4°C 42% 6.0 mph NE9.7 kmh NE 10.7 mph17.2 kmh 30.06 in1017.9 mb 0.00 in0.0 mm 0.00 in0.0 mm 0.00 in0.0 mm
05:15 PM 73.6°F23.1°C 47.1°F8.4°C 39% 3.1 mph NE5.0 kmh NE 6.9 mph11.1 kmh 30.05 in1017.6 mb 0.00 in0.0 mm 0.00 in0.0 mm 0.00 in0.0 mm
05:30 PM 73.2°F22.9°C 46.8°F8.2°C 39% 1.6 mph NE2.6 kmh NE 8.3 mph13.4 kmh 30.05 in1017.6 mb 0.00 in0.0 mm 0.00 in0.0 mm 0.00 in0.0 mm
05:45 PM 72.9°F22.7°C 47.2°F8.4°C 40% 3.1 mph NE5.0 kmh NE 8.3 mph13.4 kmh 30.05 in1017.6 mb 0.00 in0.0 mm 0.00 in0.0 mm 0.00 in0.0 mm
06:00 PM 72.3°F22.4°C 46.7°F8.2°C 40% 4.5 mph N7.2 kmh N 6.9 mph11.1 kmh 30.05 in1017.6 mb 0.00 in0.0 mm 0.00 in0.0 mm 0.00 in0.0 mm
06:15 PM 71.4°F21.9°C 47.8°F8.8°C 43% 3.1 mph NNE5.0 kmh NNE 9.2 mph14.8 kmh 30.05 in1017.6 mb 0.00 in0.0 mm 0.00 in0.0 mm 0.00 in0.0 mm
06:30 PM 68.7°F20.4°C 47.7°F8.7°C 47% 3.1 mph NE5.0 kmh NE 6.9 mph11.1 kmh 30.06 in1017.9 mb 0.00 in0.0 mm 0.00 in0.0 mm 0.00 in0.0 mm
06:45 PM 66.2°F19.0°C 47.6°F8.7°C 51% 2.2 mph NE3.5 kmh NE 5.4 mph8.7 kmh 30.05 in1017.6 mb 0.00 in0.0 mm 0.00 in0.0 mm 0.00 in0.0 mm
07:00 PM 65.1°F18.4°C 48.6°F9.2°C 55% 0.7 mph N1.1 kmh N 6.0 mph9.7 kmh 30.06 in1017.9 mb 0.00 in0.0 mm 0.00 in0.0 mm 0.00 in0.0 mm
07:15 PM 64.4°F18.0°C 48.4°F9.1°C 56% 1.6 mph NE2.6 kmh NE 5.4 mph8.7 kmh 30.04 in1017.3 mb 0.00 in0.0 mm 0.00 in0.0 mm 0.00 in0.0 mm
07:30 PM 63.9°F17.7°C 48.3°F9.1°C 57% Calm Calm 5.4 mph8.7 kmh 30.06 in1017.9 mb 0.00 in0.0 mm 0.00 in0.0 mm 0.00 in0.0 mm
07:45 PM 63.3°F17.4°C 48.3°F9.1°C 58% 1.6 mph ENE2.6 kmh ENE 3.1 mph5.0 kmh 30.07 in1018.3 mb 0.00 in0.0 mm 0.00 in0.0 mm 0.00 in0.0 mm
08:00 PM 62.8°F17.1°C 48.3°F9.1°C 59% 1.6 mph ENE2.6 kmh ENE 3.1 mph5.0 kmh 30.07 in1018.3 mb 0.00 in0.0 mm 0.00 in0.0 mm 0.00 in0.0 mm
08:15 PM 62.2°F16.8°C 49.1°F9.5°C 62% Calm Calm 2.2 mph3.5 kmh 30.06 in1017.9 mb 0.00 in0.0 mm 0.00 in0.0 mm 0.00 in0.0 mm
08:30 PM 61.2°F16.2°C 48.9°F9.4°C 64% Calm Calm 1.6 mph2.6 kmh 30.06 in1017.9 mb 0.00 in0.0 mm 0.00 in0.0 mm 0.00 in0.0 mm
08:45 PM 60.4°F15.8°C 49.8°F9.9°C 68% Calm Calm 2.2 mph3.5 kmh 30.07 in1018.3 mb 0.00 in0.0 mm 0.00 in0.0 mm 0.00 in0.0 mm
09:00 PM 59.9°F15.5°C 50.1°F10.1°C 70% 0.7 mph NE1.1 kmh NE 2.2 mph3.5 kmh 30.07 in1018.3 mb 0.00 in0.0 mm 0.00 in0.0 mm 0.00 in0.0 mm
09:15 PM 59.7°F15.4°C 50.3°F10.2°C 71% 0.7 mph E1.1 kmh E 3.8 mph6.1 kmh 30.07 in1018.3 mb 0.00 in0.0 mm 0.00 in0.0 mm 0.00 in0.0 mm
09:30 PM 60.1°F15.6°C 49.1°F9.5°C 67% 1.6 mph ENE2.6 kmh ENE 4.5 mph7.2 kmh 30.07 in1018.3 mb 0.00 in0.0 mm 0.00 in0.0 mm 0.00 in0.0 mm
09:45 PM 60.1°F15.6°C 49.1°F9.5°C 67% 3.8 mph E6.1 kmh E 6.0 mph9.7 kmh 30.07 in1018.3 mb 0.00 in0.0 mm 0.00 in0.0 mm 0.00 in0.0 mm
10:00 PM 59.9°F15.5°C 48.9°F9.4°C 67% 3.1 mph ENE5.0 kmh ENE 6.9 mph11.1 kmh 30.06 in1017.9 mb 0.00 in0.0 mm 0.00 in0.0 mm 0.00 in0.0 mm
10:15 PM 59.9°F15.5°C 48.9°F9.4°C 67% 4.5 mph NE7.2 kmh NE 7.6 mph12.2 kmh 30.06 in1017.9 mb 0.00 in0.0 mm 0.00 in0.0 mm 0.00 in0.0 mm
10:30 PM 59.5°F15.3°C 49.0°F9.4°C 68% 5.4 mph NE8.7 kmh NE 8.3 mph13.4 kmh 30.07 in1018.3 mb 0.00 in0.0 mm 0.00 in0.0 mm 0.00 in0.0 mm
10:45 PM 59.0°F15.0°C 48.9°F9.4°C 69% 5.4 mph NNE8.7 kmh NNE 6.9 mph11.1 kmh 30.06 in1017.9 mb 0.00 in0.0 mm 0.00 in0.0 mm 0.00 in0.0 mm
11:00 PM 58.8°F14.9°C 48.7°F9.3°C 69% 5.4 mph NE8.7 kmh NE 8.3 mph13.4 kmh 30.07 in1018.3 mb 0.00 in0.0 mm 0.00 in0.0 mm 0.00 in0.0 mm
11:15 PM 58.6°F14.8°C 48.9°F9.4°C 70% 4.5 mph ENE7.2 kmh ENE 9.2 mph14.8 kmh 30.06 in1017.9 mb 0.00 in0.0 mm 0.00 in0.0 mm 0.00 in0.0 mm
11:30 PM 57.9°F14.4°C 48.6°F9.2°C 71% 3.8 mph NE6.1 kmh NE 8.3 mph13.4 kmh 30.06 in1017.9 mb 0.00 in0.0 mm 0.00 in0.0 mm 0.00 in0.0 mm
11:45 PM 57.6°F14.2°C 48.2°F9.0°C 71% 3.1 mph NE5.0 kmh NE 8.3 mph13.4 kmh 30.06 in1017.9 mb 0.00 in0.0 mm 0.00 in0.0 mm 0.00 in0.0 mm